Time;durP1;ratioP1;P1;durP2;ratioP2;P2;SDS_P1;SDS_P2;PMS_P1;PMS_P2;Temp;Humidity;BMP_temperature;BMP_pressure;BME280_temperature;BME280_humidity;BME280_pressure;Samples;Min_cycle;Max_cycle;Signal;HPM_P1;HPM_P2
2022/03/19 00:01:02;;;;;;;55.17;38.37;;;7.50;1.00;;;;;;5070890;28;20528;-61
2022/03/19 00:03:28;;;;;;;66.57;40.00;;;7.50;1.00;;;;;;5070668;28;20220;-62
2022/03/19 00:05:54;;;;;;;67.73;41.33;;;7.50;1.00;;;;;;5071138;28;20516;-62
2022/03/19 00:08:20;;;;;;;64.17;41.80;;;7.60;1.00;;;;;;5071435;28;20184;-61
2022/03/19 00:10:46;;;;;;;61.00;39.90;;;7.60;1.00;;;;;;5072193;28;20437;-64
2022/03/19 00:13:15;;;;;;;63.07;40.40;;;7.60;1.00;;;;;;5070222;28;20183;-62
2022/03/19 00:15:41;;;;;;;61.57;38.23;;;7.50;1.00;;;;;;5070934;28;20446;-62
2022/03/19 00:18:07;;;;;;;57.77;39.67;;;7.30;1.00;;;;;;5072023;28;20457;-63
2022/03/19 00:20:36;;;;;;;67.30;41.20;;;7.40;1.00;;;;;;5071094;28;20184;-62
2022/03/19 00:23:02;;;;;;;65.23;39.50;;;7.20;1.00;;;;;;5069314;28;20798;-62
2022/03/19 00:25:27;;;;;;;58.47;38.30;;;7.30;1.00;;;;;;5071038;28;20525;-61
2022/03/19 00:27:53;;;;;;;62.60;39.37;;;7.20;1.00;;;;;;5071362;28;20203;-62
2022/03/19 00:30:18;;;;;;;59.23;39.43;;;7.20;1.00;;;;;;5068860;28;20219;-62
2022/03/19 00:32:44;;;;;;;61.63;40.17;;;7.20;1.00;;;;;;5071580;28;20183;-62
2022/03/19 00:35:10;;;;;;;59.97;38.67;;;7.30;1.00;;;;;;5070326;28;20370;-61
2022/03/19 00:37:43;;;;;;;59.20;39.43;;;7.30;1.00;;;;;;5070573;28;20207;-62
2022/03/19 00:40:11;;;;;;;61.17;38.90;;;7.30;1.00;;;;;;5069859;28;20484;-61
2022/03/19 00:42:37;;;;;;;59.00;39.43;;;7.10;1.00;;;;;;5070438;28;20450;-62
2022/03/19 00:45:03;;;;;;;62.97;38.97;;;7.10;1.00;;;;;;5068889;28;20784;-62
2022/03/19 00:47:29;;;;;;;57.93;38.67;;;7.10;1.00;;;;;;5068987;28;20193;-62
2022/03/19 00:49:54;;;;;;;59.90;40.47;;;7.00;1.00;;;;;;5069184;28;20922;-62
2022/03/19 00:52:20;;;;;;;58.80;35.73;;;7.10;1.00;;;;;;5069728;28;20873;-61
2022/03/19 00:54:45;;;;;;;55.63;37.90;;;7.10;1.00;;;;;;5051892;28;20186;-61
2022/03/19 00:57:11;;;;;;;52.10;35.97;;;7.10;1.00;;;;;;5069313;28;20566;-61
2022/03/19 00:59:36;;;;;;;53.57;36.30;;;7.00;1.00;;;;;;5069868;28;20187;-62
2022/03/19 01:02:02;;;;;;;61.50;39.03;;;7.00;1.00;;;;;;5070589;28;20179;-61
2022/03/19 01:04:27;;;;;;;60.90;39.37;;;7.00;1.00;;;;;;5070931;28;20668;-61
2022/03/19 01:06:53;;;;;;;62.57;41.10;;;7.00;1.00;;;;;;5070790;28;20175;-60
2022/03/19 01:09:18;;;;;;;66.20;38.83;;;7.00;1.00;;;;;;5067497;28;20187;-61
2022/03/19 01:11:45;;;;;;;65.90;41.40;;;7.00;1.00;;;;;;5066236;28;20625;-60
2022/03/19 01:14:11;;;;;;;58.10;38.30;;;;;;;;;;5070072;28;20510;-60
2022/03/19 01:16:37;;;;;;;60.73;41.47;;;7.00;1.00;;;;;;5066949;28;21025;-61
2022/03/19 01:19:03;;;;;;;62.83;39.10;;;7.10;1.00;;;;;;5069945;28;20465;-60
2022/03/19 01:21:28;;;;;;;60.67;37.73;;;7.10;1.00;;;;;;5069597;28;20183;-61
2022/03/19 01:23:54;;;;;;;60.27;38.30;;;7.00;1.00;;;;;;5069174;28;20195;-60
2022/03/19 01:26:19;;;;;;;59.97;38.97;;;7.10;1.00;;;;;;5068427;28;20183;-61
2022/03/19 01:28:45;;;;;;;61.40;38.33;;;7.10;1.00;;;;;;5070026;28;20210;-62
2022/03/19 01:31:11;;;;;;;57.67;36.27;;;7.00;1.00;;;;;;5071084;28;20201;-63
2022/03/19 01:33:36;;;;;;;51.47;35.03;;;6.90;1.00;;;;;;5069037;28;20518;-61
2022/03/19 01:36:02;;;;;;;61.23;36.03;;;6.80;1.00;;;;;;5069513;28;20434;-61
2022/03/19 01:38:28;;;;;;;57.77;36.10;;;6.90;1.00;;;;;;5071055;28;20238;-63
2022/03/19 01:40:53;;;;;;;49.70;36.60;;;6.90;1.00;;;;;;5069719;28;20690;-62
2022/03/19 01:43:19;;;;;;;54.03;34.70;;;6.90;1.00;;;;;;5068145;28;20187;-61
2022/03/19 01:45:44;;;;;;;58.97;37.00;;;6.90;1.00;;;;;;5068941;28;20291;-61
2022/03/19 01:48:10;;;;;;;60.83;37.37;;;6.80;1.00;;;;;;5070611;28;20245;-62
2022/03/19 01:50:35;;;;;;;51.30;34.40;;;6.80;1.00;;;;;;5067666;28;20225;-62
2022/03/19 01:53:02;;;;;;;55.93;35.70;;;6.60;1.00;;;;;;5069159;28;20190;-60
2022/03/19 01:55:28;;;;;;;54.90;35.63;;;6.60;1.00;;;;;;5066246;28;20195;-61
2022/03/19 01:57:55;;;;;;;52.77;35.80;;;6.70;1.00;;;;;;5067493;28;21009;-63
2022/03/19 02:00:23;;;;;;;67.60;36.70;;;6.70;1.00;;;;;;5066669;28;21222;-61
2022/03/19 02:02:51;;;;;;;53.40;33.37;;;6.80;1.00;;;;;;5068222;28;20448;-62
2022/03/19 02:05:21;;;;;;;48.67;33.87;;;6.90;1.00;;;;;;5067582;28;20586;-62
2022/03/19 02:07:48;;;;;;;53.87;33.90;;;6.90;1.00;;;;;;5066816;28;20516;-61
2022/03/19 02:10:16;;;;;;;44.37;31.03;;;6.80;1.00;;;;;;5068081;28;20455;-61
2022/03/19 02:12:44;;;;;;;53.30;33.50;;;6.80;1.00;;;;;;5069613;28;20469;-61
2022/03/19 02:15:11;;;;;;;48.37;30.70;;;6.80;1.00;;;;;;5071657;28;20440;-61
2022/03/19 02:17:37;;;;;;;58.70;31.70;;;6.80;1.00;;;;;;5068710;28;20457;-60
2022/03/19 02:20:04;;;;;;;50.60;30.17;;;6.80;1.00;;;;;;5069949;28;20528;-63
2022/03/19 02:22:30;;;;;;;47.33;30.83;;;6.90;1.00;;;;;;5066404;28;20218;-62
2022/03/19 02:27:42;;;;;;;47.07;29.47;;;6.80;1.00;;;;;;5068026;28;20201;-61
2022/03/19 02:30:10;;;;;;;46.07;28.83;;;6.90;1.00;;;;;;5068443;28;20834;-62
2022/03/19 02:32:38;;;;;;;43.23;27.83;;;6.80;1.00;;;;;;5068736;28;20934;-61
2022/03/19 02:35:04;;;;;;;37.90;26.10;;;6.80;1.00;;;;;;5067033;28;20454;-62
2022/03/19 02:37:42;;;;;;;47.43;28.80;;;6.90;1.00;;;;;;5067413;28;20458;-62
2022/03/19 02:40:10;;;;;;;37.97;25.40;;;6.90;1.00;;;;;;5065516;28;20469;-60
2022/03/19 02:42:35;;;;;;;44.23;25.30;;;7.00;1.00;;;;;;5065068;28;20441;-61
2022/03/19 02:45:01;;;;;;;40.90;24.30;;;7.00;1.00;;;;;;5069250;28;20443;-61
2022/03/19 02:47:27;;;;;;;36.23;24.70;;;7.00;1.00;;;;;;5034133;28;20234;-60
2022/03/19 02:49:52;;;;;;;39.97;24.03;;;7.00;1.00;;;;;;5066638;28;20599;-61
2022/03/19 02:52:18;;;;;;;38.27;22.87;;;6.90;1.00;;;;;;5068469;28;20560;-61
2022/03/19 02:54:45;;;;;;;33.57;21.97;;;7.00;1.00;;;;;;5067390;28;20260;-61
2022/03/19 02:57:10;;;;;;;37.00;21.70;;;7.10;1.00;;;;;;5067824;28;20212;-62
2022/03/19 02:59:36;;;;;;;31.60;19.70;;;7.10;1.00;;;;;;5069878;28;20447;-61
2022/03/19 03:02:04;;;;;;;33.03;18.47;;;7.10;1.00;;;;;;5068334;28;20273;-60
2022/03/19 03:04:32;;;;;;;27.90;17.77;;;6.90;1.00;;;;;;5069200;28;20230;-61
2022/03/19 03:06:59;;;;;;;26.90;16.37;;;6.90;1.00;;;;;;5066093;28;20459;-60
2022/03/19 03:09:26;;;;;;;28.17;16.87;;;7.00;1.00;;;;;;5069629;28;20445;-62
2022/03/19 03:11:53;;;;;;;25.60;16.00;;;7.00;1.00;;;;;;5062898;28;20479;-61
2022/03/19 03:14:22;;;;;;;28.23;15.87;;;7.00;1.00;;;;;;5072589;28;20437;-62
2022/03/19 03:16:51;;;;;;;24.13;15.93;;;7.00;1.00;;;;;;5071680;28;20475;-61
2022/03/19 03:19:17;;;;;;;25.73;15.40;;;7.10;1.00;;;;;;5070986;28;20438;-60
2022/03/19 03:21:43;;;;;;;29.13;17.47;;;7.20;1.00;;;;;;5038762;28;20795;-60
2022/03/19 03:24:09;;;;;;;31.30;17.90;;;7.30;1.00;;;;;;5070994;28;20434;-60
2022/03/19 03:26:36;;;;;;;23.43;15.90;;;7.30;1.00;;;;;;5070156;28;20438;-62
2022/03/19 03:29:02;;;;;;;32.40;18.40;;;7.20;1.00;;;;;;5072509;28;20487;-62
2022/03/19 03:31:28;;;;;;;25.73;17.03;;;;;;;;;;5070150;28;21019;-62
2022/03/19 03:33:55;;;;;;;28.40;17.40;;;7.30;1.00;;;;;;5053152;28;20456;-61
2022/03/19 03:36:21;;;;;;;27.70;16.53;;;;;;;;;;5068596;28;20453;-62
2022/03/19 03:38:47;;;;;;;27.57;16.47;;;7.30;1.00;;;;;;5054992;28;20496;-62
2022/03/19 03:41:13;;;;;;;28.10;16.27;;;7.10;1.00;;;;;;5067068;28;20464;-60
2022/03/19 03:43:38;;;;;;;24.00;15.63;;;7.00;1.00;;;;;;5070268;28;20786;-61
2022/03/19 03:46:10;;;;;;;22.10;15.57;;;6.90;1.00;;;;;;5070566;28;20590;-62
2022/03/19 03:48:36;;;;;;;30.37;14.60;;;6.80;1.00;;;;;;5071858;28;20183;-61
2022/03/19 03:51:11;;;;;;;20.73;13.83;;;6.70;1.00;;;;;;5052714;28;20449;-60
2022/03/19 03:53:37;;;;;;;22.93;15.10;;;6.60;1.00;;;;;;5070668;28;20441;-62
2022/03/19 03:56:30;;;;;;;23.70;14.07;;;6.50;1.00;;;;;;5069779;28;20925;-61
2022/03/19 03:58:56;;;;;;;23.30;14.23;;;6.60;1.00;;;;;;5032981;28;20535;-61
2022/03/19 04:01:21;;;;;;;22.93;13.90;;;6.70;1.00;;;;;;5070701;28;20919;-61
2022/03/19 04:03:47;;;;;;;25.33;14.70;;;6.70;1.00;;;;;;5071470;28;20219;-61
2022/03/19 04:06:12;;;;;;;26.53;15.37;;;6.80;1.00;;;;;;5065934;28;20191;-62
2022/03/19 04:08:38;;;;;;;26.67;16.40;;;6.90;1.00;;;;;;5068060;28;20297;-60
2022/03/19 04:11:09;;;;;;;30.73;16.87;;;6.90;1.00;;;;;;5070049;28;20224;-60
2022/03/19 04:13:35;;;;;;;24.40;16.40;;;7.00;1.00;;;;;;5070100;28;20293;-61
2022/03/19 04:16:00;;;;;;;26.60;15.67;;;7.10;1.00;;;;;;5069467;28;20534;-63
2022/03/19 04:18:26;;;;;;;30.73;16.30;;;7.10;1.00;;;;;;5068516;28;20233;-61
2022/03/19 04:20:52;;;;;;;28.03;14.73;;;7.00;1.00;;;;;;5049278;28;20688;-61
2022/03/19 04:23:18;;;;;;;23.30;14.63;;;7.00;1.00;;;;;;5065830;28;20536;-61
2022/03/19 04:25:44;;;;;;;22.30;12.67;;;7.00;1.00;;;;;;5069853;28;20525;-63
2022/03/19 04:28:12;;;;;;;22.07;14.30;;;7.10;1.00;;;;;;5071503;28;20244;-62
2022/03/19 04:30:38;;;;;;;24.90;14.50;;;6.90;1.00;;;;;;5071672;28;20655;-62
2022/03/19 04:33:04;;;;;;;23.40;14.43;;;6.80;1.00;;;;;;5035136;28;20500;-61
2022/03/19 04:38:20;;;;;;;20.70;12.60;;;6.90;1.00;;;;;;5068231;28;20487;-63
2022/03/19 04:40:47;;;;;;;19.30;13.10;;;6.90;1.00;;;;;;5044447;28;20856;-61
2022/03/19 04:43:13;;;;;;;25.83;13.10;;;6.80;1.00;;;;;;5059451;28;20484;-61
2022/03/19 04:45:41;;;;;;;24.60;11.17;;;6.70;1.00;;;;;;5073489;28;20457;-61
2022/03/19 04:48:07;;;;;;;25.77;12.97;;;6.30;1.00;;;;;;5067726;28;20460;-59
2022/03/19 04:50:39;;;;;;;22.70;11.00;;;6.20;1.00;;;;;;5068454;28;20537;-60
2022/03/19 04:53:06;;;;;;;22.23;13.40;;;6.20;1.00;;;;;;5067304;28;20924;-61
2022/03/19 04:55:33;;;;;;;20.00;12.37;;;6.10;1.00;;;;;;5069432;28;20518;-62
2022/03/19 04:57:58;;;;;;;27.53;13.93;;;6.00;1.00;;;;;;5066932;28;20465;-60
2022/03/19 05:00:25;;;;;;;25.53;13.70;;;;;;;;;;5061199;28;20804;-61
2022/03/19 05:02:50;;;;;;;24.60;13.63;;;6.00;1.00;;;;;;5061901;28;20413;-61
2022/03/19 05:05:16;;;;;;;19.47;12.87;;;6.10;1.00;;;;;;5069699;28;20634;-61
2022/03/19 05:07:42;;;;;;;20.70;13.07;;;6.10;1.00;;;;;;5069829;28;20266;-61
2022/03/19 05:12:53;;;;;;;22.57;12.23;;;6.20;1.00;;;;;;5065236;28;20190;-60
2022/03/19 05:15:19;;;;;;;25.57;13.20;;;6.20;1.00;;;;;;5064515;28;20446;-61
2022/03/19 05:17:45;;;;;;;24.77;12.83;;;6.40;1.00;;;;;;5068938;28;20466;-60
2022/03/19 05:20:12;;;;;;;25.77;14.90;;;6.50;1.00;;;;;;5069118;28;20188;-61
2022/03/19 05:22:38;;;;;;;18.93;12.73;;;6.40;1.00;;;;;;5052002;28;20441;-60
2022/03/19 05:25:05;;;;;;;25.77;15.60;;;6.40;1.00;;;;;;5065639;28;20456;-61
2022/03/19 05:27:31;;;;;;;22.10;15.60;;;6.50;1.00;;;;;;5067847;28;20761;-61
2022/03/19 05:29:57;;;;;;;24.63;15.43;;;6.40;1.00;;;;;;5048646;28;20453;-61
2022/03/19 05:32:23;;;;;;;29.80;16.13;;;6.40;1.00;;;;;;5064796;28;20438;-62
2022/03/19 05:34:49;;;;;;;24.33;15.03;;;6.30;1.00;;;;;;5068125;28;20199;-60
2022/03/19 05:37:16;;;;;;;23.10;14.23;;;6.30;1.00;;;;;;5068247;28;20469;-61
2022/03/19 05:39:42;;;;;;;21.17;13.30;;;6.30;1.00;;;;;;5062127;28;20445;-60
2022/03/19 05:42:09;;;;;;;23.47;14.50;;;6.30;1.00;;;;;;5067060;28;20438;-60
2022/03/19 05:44:34;;;;;;;23.47;15.50;;;;;;;;;;5064668;28;20922;-62
2022/03/19 05:47:00;;;;;;;22.67;15.40;;;6.40;1.00;;;;;;5062319;28;20454;-62
2022/03/19 05:49:27;;;;;;;24.20;16.20;;;6.50;1.00;;;;;;5069735;28;20907;-62
2022/03/19 05:51:54;;;;;;;19.77;13.03;;;6.60;1.00;;;;;;5068137;28;20693;-63
2022/03/19 05:54:20;;;;;;;23.47;13.60;;;6.60;1.00;;;;;;5069376;28;20525;-62
2022/03/19 05:56:46;;;;;;;22.27;13.13;;;6.40;1.00;;;;;;5065281;28;20446;-62
2022/03/19 05:59:12;;;;;;;22.30;12.20;;;;;;;;;;5054835;28;20437;-61
2022/03/19 06:01:38;;;;;;;18.97;11.93;;;6.40;1.00;;;;;;5068380;28;20601;-60
2022/03/19 06:04:04;;;;;;;20.37;11.73;;;6.50;1.00;;;;;;5070344;28;20478;-64
2022/03/19 06:06:30;;;;;;;19.17;11.50;;;6.40;1.00;;;;;;5049659;28;20448;-61
2022/03/19 06:08:55;;;;;;;19.63;10.33;;;6.40;1.00;;;;;;5064093;28;20238;-60
2022/03/19 06:11:22;;;;;;;17.47;9.47;;;6.50;1.00;;;;;;5064727;28;20529;-61
2022/03/19 06:13:48;;;;;;;15.00;11.40;;;6.50;1.00;;;;;;5063588;28;20441;-61
2022/03/19 06:16:26;;;;;;;19.43;10.10;;;6.50;1.00;;;;;;5063689;28;20940;-61
2022/03/19 06:18:51;;;;;;;23.67;10.00;;;6.40;1.00;;;;;;5045230;28;20492;-62
2022/03/19 06:21:23;;;;;;;16.07;9.30;;;6.50;1.00;;;;;;5057149;28;21488;-61
2022/03/19 06:23:49;;;;;;;16.13;9.70;;;6.30;1.00;;;;;;5061649;28;20549;-60
2022/03/19 06:26:27;;;;;;;14.57;9.13;;;6.40;1.00;;;;;;5066525;28;20958;-60
2022/03/19 06:28:53;;;;;;;16.93;9.00;;;6.40;1.00;;;;;;5043936;28;20515;-60
2022/03/19 06:31:25;;;;;;;18.87;8.93;;;6.60;1.00;;;;;;5066332;28;20453;-61
2022/03/19 06:33:51;;;;;;;18.67;8.70;;;6.80;1.00;;;;;;5058722;28;20180;-61
2022/03/19 06:39:13;;;;;;;20.00;9.70;;;;;;;;;;5061005;28;20197;-62
2022/03/19 06:41:39;;;;;;;16.27;9.20;;;7.10;1.00;;;;;;5064035;28;20905;-61
2022/03/19 06:44:05;;;;;;;11.23;8.00;;;7.10;1.00;;;;;;5062643;28;20536;-62
2022/03/19 06:46:30;;;;;;;14.37;8.67;;;7.10;1.00;;;;;;5062700;28;20537;-61
2022/03/19 06:48:56;;;;;;;14.83;8.70;;;7.10;1.00;;;;;;5069309;28;20262;-63
2022/03/19 06:51:21;;;;;;;20.67;9.03;;;7.40;1.00;;;;;;5064164;28;20633;-61
2022/03/19 06:53:48;;;;;;;14.00;8.93;;;7.30;1.00;;;;;;5068216;28;20192;-64
2022/03/19 06:56:22;;;;;;;18.53;9.00;;;7.10;1.00;;;;;;5046401;28;20187;-62
2022/03/19 06:58:48;;;;;;;17.30;9.53;;;7.00;1.00;;;;;;5067802;28;20482;-61
2022/03/19 07:01:16;;;;;;;23.73;10.23;;;7.10;1.00;;;;;;5067219;28;20441;-62
2022/03/19 07:03:46;;;;;;;18.73;9.70;;;7.00;1.00;;;;;;5065737;28;20498;-62
2022/03/19 07:06:24;;;;;;;16.67;9.40;;;7.00;1.00;;;;;;5068225;28;20433;-62
2022/03/19 07:08:50;;;;;;;20.27;9.20;;;6.80;1.00;;;;;;5063940;28;20445;-62
2022/03/19 07:11:37;;;;;;;20.53;9.40;;;6.70;1.00;;;;;;5065355;28;20441;-61
2022/03/19 07:14:04;;;;;;;16.00;9.70;;;6.80;1.00;;;;;;5069313;28;20188;-62
2022/03/19 07:16:30;;;;;;;21.30;11.07;;;;;;;;;;5052671;28;20575;-60
2022/03/19 07:18:56;;;;;;;17.90;10.23;;;6.90;1.00;;;;;;5054640;28;20865;-62
2022/03/19 07:21:22;;;;;;;18.13;10.07;;;6.90;1.00;;;;;;5072615;28;20990;-60
2022/03/19 07:23:48;;;;;;;22.00;11.13;;;6.80;1.00;;;;;;5071886;28;20180;-61
2022/03/19 07:26:25;;;;;;;21.50;11.47;;;6.60;1.00;;;;;;5069931;28;20444;-62
2022/03/19 07:28:50;;;;;;;18.00;10.30;;;6.80;1.00;;;;;;5073413;28;20455;-61
2022/03/19 07:31:17;;;;;;;13.57;10.07;;;6.60;1.00;;;;;;5071021;28;20449;-60
2022/03/19 07:33:42;;;;;;;23.43;11.03;;;6.60;1.00;;;;;;5073174;28;20320;-62
2022/03/19 07:36:23;;;;;;;23.47;10.10;;;6.60;1.00;;;;;;5070878;28;21121;-63
2022/03/19 07:38:49;;;;;;;21.70;10.57;;;;;;;;;;5071231;28;20230;-61
2022/03/19 07:41:45;;;;;;;16.40;8.67;;;6.40;1.00;;;;;;5074888;28;20438;-63
2022/03/19 07:44:11;;;;;;;16.40;9.30;;;6.30;1.00;;;;;;5072459;28;20845;-63
2022/03/19 07:46:37;;;;;;;15.70;9.33;;;6.40;1.00;;;;;;5071511;28;20442;-61
2022/03/19 07:49:03;;;;;;;12.93;9.20;;;6.40;1.00;;;;;;5070897;28;20237;-59
2022/03/19 07:51:29;;;;;;;22.77;11.30;;;6.60;1.00;;;;;;5071842;28;20370;-61
2022/03/19 07:53:55;;;;;;;14.30;10.23;;;7.10;1.00;;;;;;5070598;28;20524;-59
2022/03/19 07:56:29;;;;;;;19.53;10.90;;;7.30;1.00;;;;;;5073114;28;21014;-60
2022/03/19 07:58:55;;;;;;;17.73;11.07;;;7.50;1.00;;;;;;5070941;28;20211;-59
2022/03/19 08:01:35;;;;;;;18.53;11.57;;;7.70;1.00;;;;;;5072585;28;20459;-59
2022/03/19 08:04:01;;;;;;;18.40;12.20;;;7.80;1.00;;;;;;5070730;28;20238;-59
2022/03/19 08:06:34;;;;;;;20.13;11.63;;;7.90;1.00;;;;;;5049205;28;20852;-60
2022/03/19 08:09:01;;;;;;;22.23;11.70;;;8.00;1.00;;;;;;5069576;28;20192;-60
2022/03/19 08:11:27;;;;;;;25.03;12.53;;;;;;;;;;5069886;28;20437;-61
2022/03/19 08:13:53;;;;;;;20.53;12.40;;;8.30;1.00;;;;;;5068931;28;20460;-60
2022/03/19 08:16:22;;;;;;;26.23;12.57;;;8.40;1.00;;;;;;5070617;28;20442;-59
2022/03/19 08:18:49;;;;;;;15.80;10.70;;;8.40;1.00;;;;;;5068433;28;20580;-61
2022/03/19 08:21:26;;;;;;;22.53;12.63;;;8.40;1.00;;;;;;5070765;28;20530;-61
2022/03/19 08:23:52;;;;;;;18.60;13.63;;;8.50;1.00;;;;;;5069075;28;20976;-60
2022/03/19 08:26:30;;;;;;;21.23;14.17;;;8.60;1.00;;;;;;5070356;28;20524;-61
2022/03/19 08:28:57;;;;;;;22.57;14.07;;;8.70;1.00;;;;;;5070856;28;20460;-62
2022/03/19 08:31:33;;;;;;;22.37;15.40;;;8.60;1.00;;;;;;5070804;28;20449;-60
2022/03/19 08:33:58;;;;;;;23.93;15.20;;;8.50;1.00;;;;;;5051479;28;20471;-61
2022/03/19 08:36:24;;;;;;;23.93;16.07;;;8.60;1.00;;;;;;5070965;28;20964;-61
2022/03/19 08:41:35;;;;;;;24.20;14.87;;;8.60;1.00;;;;;;5069985;28;20241;-60
2022/03/19 08:44:02;;;;;;;24.03;15.73;;;8.60;1.00;;;;;;5071298;28;20437;-62
2022/03/19 08:46:27;;;;;;;25.07;15.67;;;8.60;1.00;;;;;;5072294;28;20294;-61
2022/03/19 08:48:53;;;;;;;20.63;15.87;;;8.70;1.00;;;;;;5072169;28;20532;-61
2022/03/19 08:51:40;;;;;;;22.17;16.03;;;9.00;1.00;;;;;;5070708;28;20195;-62
2022/03/19 08:54:15;;;;;;;22.60;14.40;;;9.20;1.00;;;;;;5070386;28;20664;-61
2022/03/19 08:56:42;;;;;;;28.10;14.07;;;9.30;1.00;;;;;;5052055;28;20455;-60
2022/03/19 08:59:08;;;;;;;22.17;15.73;;;9.30;1.00;;;;;;5072005;28;20578;-60
2022/03/19 09:01:34;;;;;;;19.53;14.53;;;9.60;1.00;;;;;;5068340;28;20889;-60
2022/03/19 09:03:59;;;;;;;22.63;14.53;;;9.50;1.00;;;;;;5068901;28;20660;-61
2022/03/19 09:06:25;;;;;;;22.70;14.40;;;9.40;1.00;;;;;;5069165;28;20441;-60
2022/03/19 09:08:51;;;;;;;21.20;15.33;;;9.40;1.00;;;;;;5069607;28;20235;-61
2022/03/19 09:11:22;;;;;;;21.90;14.23;;;9.30;1.00;;;;;;5064653;28;20499;-59
2022/03/19 09:13:49;;;;;;;20.03;14.53;;;9.20;1.00;;;;;;5069380;28;20266;-59
2022/03/19 09:16:34;;;;;;;19.87;13.97;;;9.10;1.00;;;;;;5069468;28;20461;-58
2022/03/19 09:19:00;;;;;;;18.37;13.07;;;9.10;1.00;;;;;;5067314;28;20469;-61
2022/03/19 09:21:32;;;;;;;18.73;12.63;;;9.10;1.00;;;;;;5068257;28;20434;-60
2022/03/19 09:23:58;;;;;;;19.33;12.40;;;9.10;1.00;;;;;;5066948;28;20956;-59
2022/03/19 09:26:24;;;;;;;21.30;12.90;;;9.10;1.00;;;;;;5068782;28;21342;-60
2022/03/19 09:28:50;;;;;;;18.87;11.80;;;9.00;1.00;;;;;;5070860;28;20457;-60
2022/03/19 09:31:21;;;;;;;18.77;12.20;;;9.00;1.00;;;;;;5067684;28;20531;-60
2022/03/19 09:33:47;;;;;;;16.03;11.10;;;;;;;;;;5068162;28;20799;-61
2022/03/19 09:36:21;;;;;;;14.60;10.20;;;9.00;1.00;;;;;;5071328;28;20464;-59
2022/03/19 09:38:47;;;;;;;11.87;8.73;;;8.80;1.00;;;;;;5068035;28;20459;-59
2022/03/19 09:41:29;;;;;;;11.93;9.50;;;8.80;1.00;;;;;;5069216;28;20464;-59
2022/03/19 09:43:57;;;;;;;16.90;10.03;;;8.50;1.00;;;;;;5067447;28;20195;-59
2022/03/19 09:46:43;;;;;;;12.37;8.53;;;;;;;;;;5069608;28;20465;-61
2022/03/19 09:49:10;;;;;;;11.23;7.53;;;8.20;1.00;;;;;;5067749;28;20765;-60
2022/03/19 09:51:40;;;;;;;10.47;7.90;;;8.10;1.00;;;;;;5070942;28;20445;-62
2022/03/19 09:54:09;;;;;;;8.33;6.53;;;8.10;1.00;;;;;;5052284;28;20449;-58
2022/03/19 09:56:38;;;;;;;14.53;9.37;;;8.00;1.00;;;;;;5069389;28;20430;-62
2022/03/19 09:59:06;;;;;;;14.57;10.50;;;8.10;1.00;;;;;;5067043;28;20953;-59
2022/03/19 10:01:33;;;;;;;16.70;10.00;;;8.20;1.00;;;;;;5069838;28;20543;-61
2022/03/19 10:04:03;;;;;;;8.73;6.50;;;8.70;1.00;;;;;;5071514;28;20662;-62
2022/03/19 10:09:21;;;;;;;12.20;7.20;;;8.90;1.00;;;;;;5067466;28;20528;-59
2022/03/19 10:11:49;;;;;;;9.60;7.07;;;8.90;1.00;;;;;;5066439;28;20457;-59
2022/03/19 10:14:22;;;;;;;8.37;5.90;;;8.60;1.00;;;;;;5068682;28;20441;-60
2022/03/19 10:16:52;;;;;;;9.67;6.80;;;8.50;1.00;;;;;;5068816;28;20449;-61
2022/03/19 10:19:19;;;;;;;15.93;8.73;;;8.30;1.00;;;;;;5066149;28;20497;-61
2022/03/19 10:21:45;;;;;;;8.23;6.80;;;8.30;1.00;;;;;;5067670;28;20940;-58
2022/03/19 10:24:25;;;;;;;10.33;8.63;;;8.40;1.00;;;;;;5068997;28;20473;-58
2022/03/19 10:26:51;;;;;;;14.30;8.80;;;8.40;1.00;;;;;;5064375;28;20748;-60
2022/03/19 10:29:27;;;;;;;13.57;10.07;;;9.30;1.00;;;;;;5069878;28;20939;-60
2022/03/19 10:31:59;;;;;;;19.40;11.43;;;9.80;1.00;;;;;;5067453;28;20416;-62
2022/03/19 10:34:25;;;;;;;12.83;10.23;;;9.80;1.00;;;;;;5068571;28;20476;-60
2022/03/19 10:36:50;;;;;;;14.17;11.63;;;9.60;1.00;;;;;;5069160;28;20469;-59
2022/03/19 10:39:27;;;;;;;16.63;11.37;;;9.40;1.00;;;;;;5071551;28;20195;-60
2022/03/19 10:41:55;;;;;;;16.07;12.40;;;9.10;1.00;;;;;;5069941;28;20582;-61
2022/03/19 10:44:28;;;;;;;17.30;11.53;;;8.90;1.00;;;;;;5051085;28;20533;-61
2022/03/19 10:47:03;;;;;;;14.20;11.13;;;9.00;1.00;;;;;;5053116;28;21263;-60
2022/03/19 10:49:30;;;;;;;13.60;10.70;;;9.00;1.00;;;;;;5067758;28;20514;-60
2022/03/19 10:51:58;;;;;;;16.10;11.87;;;9.10;1.00;;;;;;5066034;28;20437;-60
2022/03/19 10:54:24;;;;;;;16.43;11.70;;;9.60;1.00;;;;;;5070508;28;20452;-60
2022/03/19 10:56:52;;;;;;;13.27;10.37;;;9.90;1.00;;;;;;5070444;28;20436;-60
2022/03/19 10:59:19;;;;;;;14.37;11.47;;;10.00;1.00;;;;;;5071152;28;20192;-60
2022/03/19 11:01:48;;;;;;;20.60;11.30;;;9.90;1.00;;;;;;5070783;28;20456;-62
2022/03/19 11:04:15;;;;;;;16.23;12.33;;;9.90;1.00;;;;;;5071161;28;20465;-61
2022/03/19 11:06:43;;;;;;;12.70;10.67;;;10.50;1.00;;;;;;5068536;28;20619;-62
2022/03/19 11:09:10;;;;;;;13.10;11.20;;;11.10;1.00;;;;;;5069203;28;20442;-60
2022/03/19 11:11:57;;;;;;;13.97;11.53;;;11.50;1.00;;;;;;5069410;28;20977;-60
2022/03/19 11:14:24;;;;;;;17.73;11.80;;;11.20;1.00;;;;;;5074571;28;20433;-60
2022/03/19 11:19:44;;;;;;;17.47;13.90;;;12.30;1.00;;;;;;5068575;28;20464;-60
2022/03/19 11:22:10;;;;;;;15.83;12.53;;;12.60;1.00;;;;;;5068879;28;20433;-60
2022/03/19 11:25:16;;;;;;;17.10;12.43;;;12.00;1.00;;;;;;5065999;28;20480;-60
2022/03/19 11:27:46;;;;;;;16.07;12.40;;;11.50;1.00;;;;;;4967825;28;21294;-59
2022/03/19 11:30:18;;;;;;;16.60;12.43;;;11.50;1.00;;;;;;5067564;28;20440;-58
2022/03/19 11:33:19;;;;;;;18.80;13.90;;;11.40;1.00;;;;;;5068767;28;20460;-59
2022/03/19 11:35:54;;;;;;;18.97;12.77;;;11.30;1.00;;;;;;5065805;28;20441;-59
2022/03/19 11:38:22;;;;;;;16.87;13.90;;;10.90;1.00;;;;;;5072159;28;20492;-59
2022/03/19 11:40:56;;;;;;;15.90;13.23;;;10.80;1.00;;;;;;5072179;28;21240;-59
2022/03/19 11:43:24;;;;;;;18.50;13.30;;;11.10;1.00;;;;;;5072254;28;20438;-59
2022/03/19 11:46:26;;;;;;;14.00;11.53;;;10.90;1.00;;;;;;5072081;28;20440;-59
2022/03/19 11:48:52;;;;;;;17.10;11.40;;;10.80;1.00;;;;;;5071451;28;20946;-60
2022/03/19 11:51:34;;;;;;;15.13;12.63;;;11.00;1.00;;;;;;5071834;28;20504;-60
2022/03/19 11:54:12;;;;;;;14.87;11.07;;;11.00;1.00;;;;;;5072197;28;20976;-58
2022/03/19 11:56:47;;;;;;;16.23;12.30;;;10.90;1.00;;;;;;5071954;28;20473;-58
2022/03/19 11:59:16;;;;;;;16.90;12.27;;;10.90;1.00;;;;;;5071631;28;20961;-59
2022/03/19 12:01:48;;;;;;;13.40;10.77;;;10.90;1.00;;;;;;5071736;28;20429;-60
2022/03/19 12:04:15;;;;;;;16.03;13.13;;;10.70;1.00;;;;;;5071021;28;20461;-59
2022/03/19 12:06:54;;;;;;;14.83;10.97;;;10.80;1.00;;;;;;5071914;28;20722;-60
2022/03/19 12:09:39;;;;;;;13.70;12.00;;;10.70;1.00;;;;;;5072560;28;20486;-60
2022/03/19 12:12:13;;;;;;;17.47;14.00;;;10.90;1.00;;;;;;5071654;28;20434;-59
2022/03/19 12:14:40;;;;;;;14.83;13.17;;;11.00;1.00;;;;;;5071762;28;20508;-60
2022/03/19 12:17:20;;;;;;;14.70;12.37;;;11.10;1.00;;;;;;5070026;28;20986;-59
2022/03/19 12:19:51;;;;;;;19.13;14.17;;;11.20;1.00;;;;;;5069629;28;20494;-60
2022/03/19 12:22:36;;;;;;;19.53;13.97;;;11.40;1.00;;;;;;5072143;28;20440;-61
2022/03/19 12:25:02;;;;;;;17.90;14.13;;;;;;;;;;5072115;28;20437;-62
2022/03/19 12:27:28;;;;;;;16.30;13.30;;;11.80;1.00;;;;;;5071587;28;20457;-60
2022/03/19 12:29:57;;;;;;;16.00;14.23;;;12.10;1.00;;;;;;5071905;28;20526;-60
2022/03/19 12:32:23;;;;;;;17.73;13.00;;;12.00;1.00;;;;;;5071716;28;20287;-61
2022/03/19 12:35:00;;;;;;;16.60;11.20;;;11.60;1.00;;;;;;5052242;28;20528;-61
2022/03/19 12:37:26;;;;;;;15.27;13.07;;;;;;;;;;5068800;28;20311;-59
2022/03/19 12:39:59;;;;;;;21.00;16.23;;;11.30;1.00;;;;;;5071629;28;20449;-60
2022/03/19 12:42:30;;;;;;;16.03;13.10;;;11.40;1.00;;;;;;5036918;28;20473;-60
2022/03/19 12:44:59;;;;;;;15.90;12.37;;;11.50;1.00;;;;;;5054277;28;20812;-61
2022/03/19 12:47:24;;;;;;;17.67;12.17;;;11.00;1.00;;;;;;5068862;28;20502;-61
2022/03/19 12:49:51;;;;;;;13.63;10.87;;;10.70;1.00;;;;;;5071003;28;20434;-60
2022/03/19 12:52:17;;;;;;;16.90;11.80;;;10.70;1.00;;;;;;5071445;28;20191;-60
2022/03/19 12:54:55;;;;;;;14.37;11.97;;;10.70;1.00;;;;;;5071162;28;20944;-61
2022/03/19 12:57:24;;;;;;;16.20;12.37;;;10.60;1.00;;;;;;5071408;28;20537;-60
2022/03/19 12:59:50;;;;;;;15.00;12.00;;;10.60;1.00;;;;;;5069933;28;20923;-60
2022/03/19 13:02:16;;;;;;;15.13;11.47;;;10.60;1.00;;;;;;5070948;28;20446;-62
2022/03/19 13:04:44;;;;;;;16.77;13.00;;;10.60;1.00;;;;;;5069985;28;20992;-63
2022/03/19 13:07:13;;;;;;;19.13;12.80;;;10.80;1.00;;;;;;5071150;28;20553;-61
2022/03/19 13:09:40;;;;;;;16.90;12.97;;;10.80;1.00;;;;;;5071094;28;20441;-61
2022/03/19 13:12:14;;;;;;;17.87;14.07;;;10.90;1.00;;;;;;5053266;28;20546;-61
2022/03/19 13:14:50;;;;;;;17.17;12.50;;;10.90;1.00;;;;;;5052681;28;20930;-61
2022/03/19 13:17:16;;;;;;;14.97;12.43;;;10.90;1.00;;;;;;5070717;28;20457;-60